CDT,Max TemperatureF,Mean TemperatureF,Min TemperatureF,Max Dew PointF,MeanDew PointF,Min DewpointF,Max Humidity, Mean Humidity, Min Humidity, Max Sea Level PressureIn, Mean Sea Level PressureIn, Min Sea Level PressureIn, Max VisibilityMiles, Mean VisibilityMiles, Min VisibilityMiles, Max Wind SpeedMPH, Mean Wind SpeedMPH, Max Gust SpeedMPH,PrecipitationIn, CloudCover, Events, WindDirDegrees
2012-10-1,79,72,64,73,63,59,88,82,73,29.75,29.63,29.51,10,10,8,13,8,20,0.00,7,,270
2012-10-2,79,69,61,63,60,56,94,79,48,30.00,29.85,29.75,10,9,5,12,6,18,0.00,3,,287
2012-10-3,80,72,63,66,63,60,93,76,58,30.12,30.06,30.00,10,9,6,15,4,,0.00,0,,120
2012-10-4,84,74,64,70,66,61,91,78,58,30.22,30.16,30.13,10,9,7,8,2,,0.00,1,,100
2012-10-5,86,74,64,69,65,60,93,75,48,30.14,30.07,30.00,10,9,4,8,2,,0.00,0,,89
2012-10-6,87,76,64,68,64,61,94,75,44,30.02,29.99,29.92,10,8,2,10,2,,0.00,1,,358
2012-10-7,77,67,57,63,57,50,88,74,55,30.11,30.05,30.00,10,10,10,15,10,21,0.00,2,,357
2012-10-8,75,64,53,54,50,45,77,64,46,30.14,30.09,30.04,10,10,10,15,8,22,0.00,0,,360
2012-10-9,78,64,52,60,54,48,90,71,47,30.14,30.08,30.03,10,10,10,7,4,,0.00,0,,15
2012-10-10,86,70,57,67,61,56,93,75,47,30.17,30.12,30.07,10,9,6,7,1,,0.00,1,,219
2012-10-11,80,72,63,65,63,60,93,76,54,30.23,30.19,30.14,10,8,6,10,2,,0.00,0,,113
2012-10-12,82,72,61,66,63,59,93,77,47,30.27,30.21,30.17,10,8,4,8,2,,0.01,0,,142
2012-10-13,82,72,61,72,65,58,94,79,44,30.24,30.17,30.12,10,7,2,12,3,,0.00,0,,135
2012-10-14,84,80,75,72,69,67,87,73,56,30.14,30.06,30.00,10,10,9,13,8,,0.00,1,,172
2012-10-15,84,74,62,72,64,55,97,71,41,30.00,29.96,29.90,10,10,5,13,4,17,0.00,1,Rain,351
2012-10-16,77,65,53,59,53,48,90,64,36,30.00,29.93,29.87,10,10,10,10,4,,0.00,0,,89
2012-10-17,79,68,57,70,62,54,93,74,60,29.89,29.83,29.77,10,10,10,14,5,22,0.00,2,,164
2012-10-18,82,70,57,73,63,47,100,80,31,29.90,29.80,29.73,10,8,1,24,8,36,0.97,5,Fog-Rain,280
2012-10-19,79,64,51,52,45,35,93,61,21,29.96,29.90,29.85,10,10,10,13,3,18,0.00,0,,295
2012-10-20,80,62,46,56,48,38,93,68,23,30.01,29.96,29.92,10,10,10,7,2,,0.00,0,,248
2012-10-21,77,64,51,59,54,50,97,75,40,30.11,30.07,30.00,10,10,10,8,1,,0.00,0,,146
2012-10-22,79,66,52,65,58,50,96,76,48,30.13,30.09,30.06,10,10,9,14,5,,0.01,0,,106
2012-10-23,80,70,59,69,64,58,96,81,61,30.09,30.05,30.02,10,10,9,16,4,,0.00,0,,119
2012-10-24,81,71,62,68,64,60,100,82,58,30.09,30.04,29.99,10,10,7,13,3,,0.00,1,,102
2012-10-25,80,70,60,72,66,60,100,88,69,30.01,29.96,29.93,10,8,2,13,2,,0.01,1,,119
2012-10-26,84,71,60,66,63,57,100,87,44,29.99,29.93,29.89,10,5,0,15,2,21,0.01,1,Fog,354
2012-10-27,59,54,46,55,48,43,89,79,67,30.01,29.97,29.93,10,10,10,22,15,28,0.00,6,,340
2012-10-28,64,53,42,43,39,34,93,64,33,30.11,30.02,29.97,10,10,10,20,10,32,0.00,0,,325
2012-10-29,64,52,41,36,33,26,79,55,25,30.16,30.09,30.02,10,10,10,22,10,29,0.00,0,,329
2012-10-30,66,52,37,44,36,32,89,62,30,30.09,30.04,29.97,10,10,10,13,5,17,0.00,0,,298
2012-10-31,75,60,46,59,52,42,93,75,48,30.06,30.01,29.95,10,10,8,9,4,,0.00,1,,248